sensor_id;sensor_type;location;lat;lon;timestamp;temperature;humidity
254;DHT22;590;48.772;8.846;2024-01-06T00:00:51;4.60;99.90
254;DHT22;590;48.772;8.846;2024-01-06T00:03:19;4.60;99.90
254;DHT22;590;48.772;8.846;2024-01-06T00:05:47;4.60;99.90
254;DHT22;590;48.772;8.846;2024-01-06T00:08:15;4.60;99.90
254;DHT22;590;48.772;8.846;2024-01-06T00:10:43;4.60;99.90
254;DHT22;590;48.772;8.846;2024-01-06T00:13:13;4.60;99.90
254;DHT22;590;48.772;8.846;2024-01-06T00:15:41;4.60;99.90
254;DHT22;590;48.772;8.846;2024-01-06T00:18:09;4.60;99.90
254;DHT22;590;48.772;8.846;2024-01-06T00:20:37;4.70;99.90
254;DHT22;590;48.772;8.846;2024-01-06T00:23:06;4.70;99.90
254;DHT22;590;48.772;8.846;2024-01-06T00:25:37;4.60;99.90
254;DHT22;590;48.772;8.846;2024-01-06T00:28:05;4.70;99.90
254;DHT22;590;48.772;8.846;2024-01-06T00:30:34;4.70;99.90
254;DHT22;590;48.772;8.846;2024-01-06T00:33:03;4.60;99.90
254;DHT22;590;48.772;8.846;2024-01-06T00:35:31;4.70;99.90
254;DHT22;590;48.772;8.846;2024-01-06T00:37:59;4.70;99.90
254;DHT22;590;48.772;8.846;2024-01-06T00:40:28;4.70;99.90
254;DHT22;590;48.772;8.846;2024-01-06T00:42:56;4.70;99.90
254;DHT22;590;48.772;8.846;2024-01-06T00:45:24;4.70;99.90
254;DHT22;590;48.772;8.846;2024-01-06T00:47:53;4.60;99.90
254;DHT22;590;48.772;8.846;2024-01-06T00:50:21;4.60;99.90
254;DHT22;590;48.772;8.846;2024-01-06T00:52:49;4.60;99.90
254;DHT22;590;48.772;8.846;2024-01-06T00:55:19;4.50;99.90
254;DHT22;590;48.772;8.846;2024-01-06T00:57:47;4.50;99.90
254;DHT22;590;48.772;8.846;2024-01-06T01:00:15;4.40;99.90
254;DHT22;590;48.772;8.846;2024-01-06T01:02:44;4.40;99.90
254;DHT22;590;48.772;8.846;2024-01-06T01:05:13;4.40;99.90
254;DHT22;590;48.772;8.846;2024-01-06T01:07:41;4.40;99.90
254;DHT22;590;48.772;8.846;2024-01-06T01:10:09;4.40;99.90
254;DHT22;590;48.772;8.846;2024-01-06T01:12:37;4.40;99.90
254;DHT22;590;48.772;8.846;2024-01-06T01:15:06;4.40;99.90
254;DHT22;590;48.772;8.846;2024-01-06T01:17:35;4.40;99.90
254;DHT22;590;48.772;8.846;2024-01-06T01:20:05;4.30;99.90
254;DHT22;590;48.772;8.846;2024-01-06T01:22:34;4.40;99.90
254;DHT22;590;48.772;8.846;2024-01-06T01:25:03;4.30;99.90
254;DHT22;590;48.772;8.846;2024-01-06T01:27:34;4.30;99.90
254;DHT22;590;48.772;8.846;2024-01-06T01:30:02;4.30;99.90
254;DHT22;590;48.772;8.846;2024-01-06T01:32:32;4.30;99.90
254;DHT22;590;48.772;8.846;2024-01-06T01:35:01;4.40;99.90
254;DHT22;590;48.772;8.846;2024-01-06T01:37:30;4.40;99.90
254;DHT22;590;48.772;8.846;2024-01-06T01:39:59;4.40;99.90
254;DHT22;590;48.772;8.846;2024-01-06T01:42:27;4.40;99.90
254;DHT22;590;48.772;8.846;2024-01-06T01:44:55;4.40;99.90
254;DHT22;590;48.772;8.846;2024-01-06T01:47:23;4.50;99.90
254;DHT22;590;48.772;8.846;2024-01-06T01:49:52;4.50;99.90
254;DHT22;590;48.772;8.846;2024-01-06T01:52:21;4.50;99.90
254;DHT22;590;48.772;8.846;2024-01-06T01:54:51;4.50;99.90
254;DHT22;590;48.772;8.846;2024-01-06T01:57:24;4.50;99.90
254;DHT22;590;48.772;8.846;2024-01-06T01:59:53;4.50;99.90
254;DHT22;590;48.772;8.846;2024-01-06T02:02:21;4.50;99.90
254;DHT22;590;48.772;8.846;2024-01-06T02:04:50;4.50;99.90
254;DHT22;590;48.772;8.846;2024-01-06T02:07:19;4.50;99.90
254;DHT22;590;48.772;8.846;2024-01-06T02:09:47;4.50;99.90
254;DHT22;590;48.772;8.846;2024-01-06T02:12:15;4.40;99.90
254;DHT22;590;48.772;8.846;2024-01-06T02:14:44;4.50;99.90
254;DHT22;590;48.772;8.846;2024-01-06T02:17:12;4.50;99.90
254;DHT22;590;48.772;8.846;2024-01-06T02:19:40;4.50;99.90
254;DHT22;590;48.772;8.846;2024-01-06T02:22:10;4.50;99.90
254;DHT22;590;48.772;8.846;2024-01-06T02:24:38;4.50;99.90
254;DHT22;590;48.772;8.846;2024-01-06T02:27:06;4.40;99.90
254;DHT22;590;48.772;8.846;2024-01-06T02:29:34;4.40;99.90
254;DHT22;590;48.772;8.846;2024-01-06T02:32:02;4.40;99.90
254;DHT22;590;48.772;8.846;2024-01-06T02:34:30;4.50;99.90
254;DHT22;590;48.772;8.846;2024-01-06T02:36:59;4.50;99.90
254;DHT22;590;48.772;8.846;2024-01-06T02:39:29;4.50;99.90
254;DHT22;590;48.772;8.846;2024-01-06T02:41:57;4.50;99.90
254;DHT22;590;48.772;8.846;2024-01-06T02:44:28;4.50;99.90
254;DHT22;590;48.772;8.846;2024-01-06T02:46:56;4.40;99.90
254;DHT22;590;48.772;8.846;2024-01-06T02:49:24;4.40;99.90
254;DHT22;590;48.772;8.846;2024-01-06T02:51:52;4.40;99.90
254;DHT22;590;48.772;8.846;2024-01-06T02:54:20;4.30;99.90
254;DHT22;590;48.772;8.846;2024-01-06T02:56:49;4.30;99.90
254;DHT22;590;48.772;8.846;2024-01-06T02:59:17;4.30;99.90
254;DHT22;590;48.772;8.846;2024-01-06T03:01:45;4.30;99.90
254;DHT22;590;48.772;8.846;2024-01-06T03:04:16;4.30;99.90
254;DHT22;590;48.772;8.846;2024-01-06T03:06:44;4.30;99.90
254;DHT22;590;48.772;8.846;2024-01-06T03:09:18;4.30;99.90
254;DHT22;590;48.772;8.846;2024-01-06T03:11:47;4.20;99.90
254;DHT22;590;48.772;8.846;2024-01-06T03:14:18;4.20;99.90
254;DHT22;590;48.772;8.846;2024-01-06T03:16:46;4.20;99.90
254;DHT22;590;48.772;8.846;2024-01-06T03:19:14;4.20;99.90
254;DHT22;590;48.772;8.846;2024-01-06T03:21:42;4.20;99.90
254;DHT22;590;48.772;8.846;2024-01-06T03:24:10;4.20;99.90
254;DHT22;590;48.772;8.846;2024-01-06T03:26:38;4.20;99.90
254;DHT22;590;48.772;8.846;2024-01-06T03:29:06;4.20;99.90
254;DHT22;590;48.772;8.846;2024-01-06T03:31:35;4.20;99.90
254;DHT22;590;48.772;8.846;2024-01-06T03:34:04;4.20;99.90
254;DHT22;590;48.772;8.846;2024-01-06T03:36:32;4.20;99.90
254;DHT22;590;48.772;8.846;2024-01-06T03:39:00;4.30;99.90
254;DHT22;590;48.772;8.846;2024-01-06T03:41:28;4.20;99.90
254;DHT22;590;48.772;8.846;2024-01-06T03:43:56;4.20;99.90
254;DHT22;590;48.772;8.846;2024-01-06T03:46:24;4.20;99.90
254;DHT22;590;48.772;8.846;2024-01-06T03:48:54;4.30;99.90
254;DHT22;590;48.772;8.846;2024-01-06T03:51:22;4.30;99.90
254;DHT22;590;48.772;8.846;2024-01-06T03:53:49;4.30;99.90
254;DHT22;590;48.772;8.846;2024-01-06T03:56:17;4.30;99.90
254;DHT22;590;48.772;8.846;2024-01-06T03:58:46;4.30;99.90
254;DHT22;590;48.772;8.846;2024-01-06T04:01:16;4.30;99.90
254;DHT22;590;48.772;8.846;2024-01-06T04:03:44;4.30;99.90
254;DHT22;590;48.772;8.846;2024-01-06T04:06:14;4.30;99.90
254;DHT22;590;48.772;8.846;2024-01-06T04:08:42;4.40;99.90
254;DHT22;590;48.772;8.846;2024-01-06T04:11:10;4.40;99.90
254;DHT22;590;48.772;8.846;2024-01-06T04:13:39;4.40;99.90
254;DHT22;590;48.772;8.846;2024-01-06T04:16:07;4.40;99.90
254;DHT22;590;48.772;8.846;2024-01-06T04:18:35;4.40;99.90
254;DHT22;590;48.772;8.846;2024-01-06T04:21:04;4.30;99.90
254;DHT22;590;48.772;8.846;2024-01-06T04:23:33;4.30;99.90
254;DHT22;590;48.772;8.846;2024-01-06T04:26:01;4.40;99.90
254;DHT22;590;48.772;8.846;2024-01-06T04:28:31;4.40;99.90
254;DHT22;590;48.772;8.846;2024-01-06T04:30:59;4.50;99.90
254;DHT22;590;48.772;8.846;2024-01-06T04:33:27;4.50;99.90
254;DHT22;590;48.772;8.846;2024-01-06T04:35:55;4.50;99.90
254;DHT22;590;48.772;8.846;2024-01-06T04:38:24;4.60;99.90
254;DHT22;590;48.772;8.846;2024-01-06T04:40:54;4.60;99.90
254;DHT22;590;48.772;8.846;2024-01-06T04:43:22;4.60;99.90
254;DHT22;590;48.772;8.846;2024-01-06T04:45:50;4.70;99.90
254;DHT22;590;48.772;8.846;2024-01-06T04:48:18;4.70;99.90
254;DHT22;590;48.772;8.846;2024-01-06T04:50:46;4.70;99.90
254;DHT22;590;48.772;8.846;2024-01-06T04:53:14;4.70;99.90
254;DHT22;590;48.772;8.846;2024-01-06T04:55:42;4.80;99.90
254;DHT22;590;48.772;8.846;2024-01-06T04:58:12;4.80;99.90
254;DHT22;590;48.772;8.846;2024-01-06T05:00:40;4.80;99.90
254;DHT22;590;48.772;8.846;2024-01-06T05:03:08;4.80;99.90
254;DHT22;590;48.772;8.846;2024-01-06T05:05:37;4.80;99.90
254;DHT22;590;48.772;8.846;2024-01-06T05:08:05;4.90;99.90
254;DHT22;590;48.772;8.846;2024-01-06T05:10:33;4.90;99.90
254;DHT22;590;48.772;8.846;2024-01-06T05:13:01;4.90;99.90
254;DHT22;590;48.772;8.846;2024-01-06T05:15:31;4.90;99.90
254;DHT22;590;48.772;8.846;2024-01-06T05:17:59;4.90;99.90
254;DHT22;590;48.772;8.846;2024-01-06T05:20:27;4.90;99.90
254;DHT22;590;48.772;8.846;2024-01-06T05:22:55;5.00;99.90
254;DHT22;590;48.772;8.846;2024-01-06T05:25:23;5.00;99.90
254;DHT22;590;48.772;8.846;2024-01-06T05:27:51;5.00;99.90
254;DHT22;590;48.772;8.846;2024-01-06T05:30:19;5.10;99.90
254;DHT22;590;48.772;8.846;2024-01-06T05:32:49;5.10;99.90
254;DHT22;590;48.772;8.846;2024-01-06T05:35:17;5.10;99.90
254;DHT22;590;48.772;8.846;2024-01-06T05:37:45;5.10;99.90
254;DHT22;590;48.772;8.846;2024-01-06T05:40:14;5.10;99.90
254;DHT22;590;48.772;8.846;2024-01-06T05:42:42;5.10;99.90
254;DHT22;590;48.772;8.846;2024-01-06T05:45:11;5.20;99.90
254;DHT22;590;48.772;8.846;2024-01-06T05:47:40;5.10;99.90
254;DHT22;590;48.772;8.846;2024-01-06T05:50:10;5.20;99.90
254;DHT22;590;48.772;8.846;2024-01-06T05:52:38;5.20;99.90
254;DHT22;590;48.772;8.846;2024-01-06T05:55:06;5.20;99.90
254;DHT22;590;48.772;8.846;2024-01-06T05:57:34;5.20;99.90
254;DHT22;590;48.772;8.846;2024-01-06T06:00:03;5.20;99.90
254;DHT22;590;48.772;8.846;2024-01-06T06:02:32;5.20;99.90
254;DHT22;590;48.772;8.846;2024-01-06T06:05:00;5.20;99.90
254;DHT22;590;48.772;8.846;2024-01-06T06:07:29;5.20;99.90
254;DHT22;590;48.772;8.846;2024-01-06T06:09:57;5.20;99.90
254;DHT22;590;48.772;8.846;2024-01-06T06:12:25;5.20;99.90
254;DHT22;590;48.772;8.846;2024-01-06T06:14:53;5.20;99.90
254;DHT22;590;48.772;8.846;2024-01-06T06:17:22;5.20;99.90
254;DHT22;590;48.772;8.846;2024-01-06T06:19:52;5.20;99.90
254;DHT22;590;48.772;8.846;2024-01-06T06:22:20;5.20;99.90
254;DHT22;590;48.772;8.846;2024-01-06T06:24:50;5.30;99.90
254;DHT22;590;48.772;8.846;2024-01-06T06:27:18;5.30;99.90
254;DHT22;590;48.772;8.846;2024-01-06T06:29:46;5.30;99.90
254;DHT22;590;48.772;8.846;2024-01-06T06:32:14;5.30;99.90
254;DHT22;590;48.772;8.846;2024-01-06T06:34:43;5.30;99.90
254;DHT22;590;48.772;8.846;2024-01-06T06:37:11;5.30;99.90
254;DHT22;590;48.772;8.846;2024-01-06T06:39:39;5.30;99.90
254;DHT22;590;48.772;8.846;2024-01-06T06:42:09;5.30;99.90
254;DHT22;590;48.772;8.846;2024-01-06T06:44:37;5.30;99.90
254;DHT22;590;48.772;8.846;2024-01-06T06:47:05;5.30;99.90
254;DHT22;590;48.772;8.846;2024-01-06T06:49:33;5.30;99.90
254;DHT22;590;48.772;8.846;2024-01-06T06:52:02;5.30;99.90
254;DHT22;590;48.772;8.846;2024-01-06T06:54:31;5.30;99.90
254;DHT22;590;48.772;8.846;2024-01-06T06:56:59;5.30;99.90
254;DHT22;590;48.772;8.846;2024-01-06T06:59:28;5.30;99.90
254;DHT22;590;48.772;8.846;2024-01-06T07:01:57;5.30;99.90
254;DHT22;590;48.772;8.846;2024-01-06T07:04:25;5.30;99.90
254;DHT22;590;48.772;8.846;2024-01-06T07:06:54;5.30;99.90
254;DHT22;590;48.772;8.846;2024-01-06T07:09:22;5.30;99.90
254;DHT22;590;48.772;8.846;2024-01-06T07:11:51;5.40;99.90
254;DHT22;590;48.772;8.846;2024-01-06T07:14:19;5.30;99.90
254;DHT22;590;48.772;8.846;2024-01-06T07:16:48;5.40;99.90
254;DHT22;590;48.772;8.846;2024-01-06T07:19:17;5.40;99.90
254;DHT22;590;48.772;8.846;2024-01-06T07:21:45;5.40;99.90
254;DHT22;590;48.772;8.846;2024-01-06T07:24:13;5.40;99.90
254;DHT22;590;48.772;8.846;2024-01-06T07:26:44;5.40;99.90
254;DHT22;590;48.772;8.846;2024-01-06T07:29:12;5.40;99.90
254;DHT22;590;48.772;8.846;2024-01-06T07:31:40;5.40;99.90
254;DHT22;590;48.772;8.846;2024-01-06T07:34:10;5.40;99.90
254;DHT22;590;48.772;8.846;2024-01-06T07:36:38;5.50;99.90
254;DHT22;590;48.772;8.846;2024-01-06T07:39:06;5.50;99.90
254;DHT22;590;48.772;8.846;2024-01-06T07:41:34;5.50;99.90
254;DHT22;590;48.772;8.846;2024-01-06T07:44:02;5.50;99.90
254;DHT22;590;48.772;8.846;2024-01-06T07:46:31;5.50;99.90
254;DHT22;590;48.772;8.846;2024-01-06T07:48:59;5.50;99.90
254;DHT22;590;48.772;8.846;2024-01-06T07:51:29;5.50;99.90
254;DHT22;590;48.772;8.846;2024-01-06T07:53:57;5.50;99.90
254;DHT22;590;48.772;8.846;2024-01-06T07:56:26;5.60;99.90
254;DHT22;590;48.772;8.846;2024-01-06T07:58:54;5.60;99.90
254;DHT22;590;48.772;8.846;2024-01-06T08:01:22;5.60;99.90
254;DHT22;590;48.772;8.846;2024-01-06T08:03:50;5.60;99.90
254;DHT22;590;48.772;8.846;2024-01-06T08:06:18;5.70;99.90
254;DHT22;590;48.772;8.846;2024-01-06T08:08:48;5.70;99.90
254;DHT22;590;48.772;8.846;2024-01-06T08:11:16;5.70;99.90
254;DHT22;590;48.772;8.846;2024-01-06T08:13:44;5.70;99.90
254;DHT22;590;48.772;8.846;2024-01-06T08:16:12;5.70;99.90
254;DHT22;590;48.772;8.846;2024-01-06T08:18:40;5.70;99.90
254;DHT22;590;48.772;8.846;2024-01-06T08:21:08;5.70;99.90
254;DHT22;590;48.772;8.846;2024-01-06T08:23:36;5.70;99.90
254;DHT22;590;48.772;8.846;2024-01-06T08:26:05;5.80;99.90
254;DHT22;590;48.772;8.846;2024-01-06T08:28:37;5.80;99.90
254;DHT22;590;48.772;8.846;2024-01-06T08:31:05;5.80;99.90
254;DHT22;590;48.772;8.846;2024-01-06T08:33:33;5.80;99.90
254;DHT22;590;48.772;8.846;2024-01-06T08:36:01;5.80;99.90
254;DHT22;590;48.772;8.846;2024-01-06T08:38:29;5.80;99.90
254;DHT22;590;48.772;8.846;2024-01-06T08:40:57;5.90;99.90
254;DHT22;590;48.772;8.846;2024-01-06T08:43:27;5.90;99.90
254;DHT22;590;48.772;8.846;2024-01-06T08:45:55;5.90;99.90
254;DHT22;590;48.772;8.846;2024-01-06T08:48:23;5.90;99.90
254;DHT22;590;48.772;8.846;2024-01-06T08:50:52;6.00;99.90
254;DHT22;590;48.772;8.846;2024-01-06T08:53:20;6.00;99.90
254;DHT22;590;48.772;8.846;2024-01-06T08:55:48;6.00;99.90
254;DHT22;590;48.772;8.846;2024-01-06T08:58:16;6.10;99.90
254;DHT22;590;48.772;8.846;2024-01-06T09:00:46;6.10;99.90
254;DHT22;590;48.772;8.846;2024-01-06T09:03:14;6.10;99.90
254;DHT22;590;48.772;8.846;2024-01-06T09:05:43;6.10;99.90
254;DHT22;590;48.772;8.846;2024-01-06T09:08:11;6.10;99.90
254;DHT22;590;48.772;8.846;2024-01-06T09:10:39;6.20;99.90
254;DHT22;590;48.772;8.846;2024-01-06T09:13:07;6.20;99.90
254;DHT22;590;48.772;8.846;2024-01-06T09:15:35;6.30;99.90
254;DHT22;590;48.772;8.846;2024-01-06T09:18:04;6.30;99.90
254;DHT22;590;48.772;8.846;2024-01-06T09:20:33;6.40;99.90
254;DHT22;590;48.772;8.846;2024-01-06T09:23:01;6.40;99.90
254;DHT22;590;48.772;8.846;2024-01-06T09:25:29;6.50;99.90
254;DHT22;590;48.772;8.846;2024-01-06T09:27:57;6.50;99.90
254;DHT22;590;48.772;8.846;2024-01-06T09:30:26;6.60;99.90
254;DHT22;590;48.772;8.846;2024-01-06T09:32:54;6.60;99.90
254;DHT22;590;48.772;8.846;2024-01-06T09:35:24;6.60;99.90
254;DHT22;590;48.772;8.846;2024-01-06T09:37:52;6.70;99.90
254;DHT22;590;48.772;8.846;2024-01-06T09:40:22;6.60;99.90
254;DHT22;590;48.772;8.846;2024-01-06T09:42:50;6.60;99.90
254;DHT22;590;48.772;8.846;2024-01-06T09:45:19;6.60;99.90
254;DHT22;590;48.772;8.846;2024-01-06T09:47:49;6.50;99.90
254;DHT22;590;48.772;8.846;2024-01-06T09:50:19;6.50;99.90
254;DHT22;590;48.772;8.846;2024-01-06T09:52:49;6.50;99.90
254;DHT22;590;48.772;8.846;2024-01-06T09:55:24;6.50;99.90
254;DHT22;590;48.772;8.846;2024-01-06T09:57:53;6.50;99.90
254;DHT22;590;48.772;8.846;2024-01-06T10:00:22;6.50;99.90
254;DHT22;590;48.772;8.846;2024-01-06T10:02:50;6.50;99.90
254;DHT22;590;48.772;8.846;2024-01-06T10:05:18;6.60;99.90
254;DHT22;590;48.772;8.846;2024-01-06T10:07:48;6.60;99.90
254;DHT22;590;48.772;8.846;2024-01-06T10:10:17;6.60;99.90
254;DHT22;590;48.772;8.846;2024-01-06T10:12:46;6.60;99.90
254;DHT22;590;48.772;8.846;2024-01-06T10:15:18;6.60;99.90
254;DHT22;590;48.772;8.846;2024-01-06T10:17:47;6.60;99.90
254;DHT22;590;48.772;8.846;2024-01-06T10:20:17;6.70;99.90
254;DHT22;590;48.772;8.846;2024-01-06T10:22:46;6.70;99.90
254;DHT22;590;48.772;8.846;2024-01-06T10:25:16;6.70;99.90
254;DHT22;590;48.772;8.846;2024-01-06T10:27:44;6.80;99.90
254;DHT22;590;48.772;8.846;2024-01-06T10:30:12;6.80;99.90
254;DHT22;590;48.772;8.846;2024-01-06T10:32:45;6.90;99.90
254;DHT22;590;48.772;8.846;2024-01-06T10:35:13;6.90;99.90
254;DHT22;590;48.772;8.846;2024-01-06T10:37:42;6.90;99.90
254;DHT22;590;48.772;8.846;2024-01-06T10:40:12;6.90;99.90
254;DHT22;590;48.772;8.846;2024-01-06T10:42:42;6.80;99.90
254;DHT22;590;48.772;8.846;2024-01-06T10:45:12;6.80;99.90
254;DHT22;590;48.772;8.846;2024-01-06T10:47:41;6.80;99.90
254;DHT22;590;48.772;8.846;2024-01-06T10:50:11;6.80;99.90
254;DHT22;590;48.772;8.846;2024-01-06T10:52:40;6.70;99.90
254;DHT22;590;48.772;8.846;2024-01-06T10:55:09;6.70;99.90
254;DHT22;590;48.772;8.846;2024-01-06T10:57:38;6.70;99.90
254;DHT22;590;48.772;8.846;2024-01-06T11:00:10;6.60;99.90
254;DHT22;590;48.772;8.846;2024-01-06T11:02:39;6.70;99.90
254;DHT22;590;48.772;8.846;2024-01-06T11:05:08;6.70;99.90
254;DHT22;590;48.772;8.846;2024-01-06T11:07:38;6.70;99.90
254;DHT22;590;48.772;8.846;2024-01-06T11:10:13;6.80;99.90
254;DHT22;590;48.772;8.846;2024-01-06T11:12:43;6.80;99.90
254;DHT22;590;48.772;8.846;2024-01-06T11:15:41;6.90;99.90
254;DHT22;590;48.772;8.846;2024-01-06T11:18:10;7.00;99.90
254;DHT22;590;48.772;8.846;2024-01-06T11:21:16;7.10;99.90
254;DHT22;590;48.772;8.846;2024-01-06T11:23:46;7.10;99.90
254;DHT22;590;48.772;8.846;2024-01-06T11:26:14;7.10;99.90
254;DHT22;590;48.772;8.846;2024-01-06T11:28:46;7.10;99.90
254;DHT22;590;48.772;8.846;2024-01-06T11:31:16;7.10;99.90
254;DHT22;590;48.772;8.846;2024-01-06T11:33:44;7.10;99.90
254;DHT22;590;48.772;8.846;2024-01-06T11:36:15;7.10;99.90
254;DHT22;590;48.772;8.846;2024-01-06T11:38:43;7.00;99.90
254;DHT22;590;48.772;8.846;2024-01-06T11:41:47;7.00;99.90
254;DHT22;590;48.772;8.846;2024-01-06T11:44:18;7.10;99.90
254;DHT22;590;48.772;8.846;2024-01-06T11:46:48;7.10;99.90
254;DHT22;590;48.772;8.846;2024-01-06T11:49:16;7.20;99.90
254;DHT22;590;48.772;8.846;2024-01-06T11:51:46;7.30;99.90
254;DHT22;590;48.772;8.846;2024-01-06T11:54:14;7.40;99.90
254;DHT22;590;48.772;8.846;2024-01-06T11:56:44;7.40;99.90
254;DHT22;590;48.772;8.846;2024-01-06T11:59:12;7.40;99.90
254;DHT22;590;48.772;8.846;2024-01-06T12:01:40;7.50;99.90
254;DHT22;590;48.772;8.846;2024-01-06T12:04:14;7.50;99.90
254;DHT22;590;48.772;8.846;2024-01-06T12:06:44;7.40;99.90
254;DHT22;590;48.772;8.846;2024-01-06T12:09:13;7.40;99.90
254;DHT22;590;48.772;8.846;2024-01-06T12:11:42;7.30;99.90
254;DHT22;590;48.772;8.846;2024-01-06T12:14:13;7.40;99.90
254;DHT22;590;48.772;8.846;2024-01-06T12:16:43;7.30;99.90
254;DHT22;590;48.772;8.846;2024-01-06T12:19:13;7.30;99.90
254;DHT22;590;48.772;8.846;2024-01-06T12:21:41;7.20;99.90
254;DHT22;590;48.772;8.846;2024-01-06T12:24:15;7.20;99.90
254;DHT22;590;48.772;8.846;2024-01-06T12:26:48;7.10;99.90
254;DHT22;590;48.772;8.846;2024-01-06T12:29:17;7.10;99.90
254;DHT22;590;48.772;8.846;2024-01-06T12:31:46;7.10;99.90
254;DHT22;590;48.772;8.846;2024-01-06T12:34:18;7.10;99.90
254;DHT22;590;48.772;8.846;2024-01-06T12:36:46;7.10;99.90
254;DHT22;590;48.772;8.846;2024-01-06T12:39:14;7.10;99.90
254;DHT22;590;48.772;8.846;2024-01-06T12:41:43;7.10;99.90
254;DHT22;590;48.772;8.846;2024-01-06T12:44:11;7.00;99.90
254;DHT22;590;48.772;8.846;2024-01-06T12:46:39;7.00;99.90
254;DHT22;590;48.772;8.846;2024-01-06T12:49:08;7.00;99.90
254;DHT22;590;48.772;8.846;2024-01-06T12:51:38;6.90;99.90
254;DHT22;590;48.772;8.846;2024-01-06T12:54:06;6.80;99.90
254;DHT22;590;48.772;8.846;2024-01-06T12:56:34;6.80;99.90
254;DHT22;590;48.772;8.846;2024-01-06T12:59:02;6.80;99.90
254;DHT22;590;48.772;8.846;2024-01-06T13:01:31;6.70;99.90
254;DHT22;590;48.772;8.846;2024-01-06T13:03:59;6.70;99.90
254;DHT22;590;48.772;8.846;2024-01-06T13:06:28;6.80;99.90
254;DHT22;590;48.772;8.846;2024-01-06T13:08:59;6.80;99.90
254;DHT22;590;48.772;8.846;2024-01-06T13:11:29;6.90;99.90
254;DHT22;590;48.772;8.846;2024-01-06T13:13:57;6.90;99.90
254;DHT22;590;48.772;8.846;2024-01-06T13:16:25;6.80;99.90
254;DHT22;590;48.772;8.846;2024-01-06T13:18:53;6.80;99.90
254;DHT22;590;48.772;8.846;2024-01-06T13:21:21;6.80;99.90
254;DHT22;590;48.772;8.846;2024-01-06T13:23:51;6.70;99.90
254;DHT22;590;48.772;8.846;2024-01-06T13:26:20;6.70;99.90
254;DHT22;590;48.772;8.846;2024-01-06T13:28:48;6.70;99.90
254;DHT22;590;48.772;8.846;2024-01-06T13:31:16;6.70;99.90
254;DHT22;590;48.772;8.846;2024-01-06T13:33:46;6.60;99.90
254;DHT22;590;48.772;8.846;2024-01-06T13:36:14;6.60;99.90
254;DHT22;590;48.772;8.846;2024-01-06T13:38:44;6.60;99.90
254;DHT22;590;48.772;8.846;2024-01-06T13:41:12;6.60;99.90
254;DHT22;590;48.772;8.846;2024-01-06T13:43:42;6.60;99.90
254;DHT22;590;48.772;8.846;2024-01-06T13:46:10;6.60;99.90
254;DHT22;590;48.772;8.846;2024-01-06T13:48:40;6.60;99.90
254;DHT22;590;48.772;8.846;2024-01-06T13:51:09;6.50;99.90
254;DHT22;590;48.772;8.846;2024-01-06T13:53:37;6.50;99.90
254;DHT22;590;48.772;8.846;2024-01-06T13:56:06;6.40;99.90
254;DHT22;590;48.772;8.846;2024-01-06T13:58:34;6.40;99.90
254;DHT22;590;48.772;8.846;2024-01-06T14:01:05;6.30;99.90
254;DHT22;590;48.772;8.846;2024-01-06T14:03:35;6.30;99.90
254;DHT22;590;48.772;8.846;2024-01-06T14:06:04;6.30;99.90
254;DHT22;590;48.772;8.846;2024-01-06T14:08:33;6.30;99.90
254;DHT22;590;48.772;8.846;2024-01-06T14:11:01;6.30;99.90
254;DHT22;590;48.772;8.846;2024-01-06T14:13:29;6.30;99.90
254;DHT22;590;48.772;8.846;2024-01-06T14:15:59;6.30;99.90
254;DHT22;590;48.772;8.846;2024-01-06T14:18:29;6.20;99.90
254;DHT22;590;48.772;8.846;2024-01-06T14:20:57;6.20;99.90
254;DHT22;590;48.772;8.846;2024-01-06T14:23:25;6.20;99.90
254;DHT22;590;48.772;8.846;2024-01-06T14:25:56;6.20;99.90
254;DHT22;590;48.772;8.846;2024-01-06T14:28:24;6.20;99.90
254;DHT22;590;48.772;8.846;2024-01-06T14:30:52;6.20;99.90
254;DHT22;590;48.772;8.846;2024-01-06T14:33:20;6.20;99.90
254;DHT22;590;48.772;8.846;2024-01-06T14:35:50;6.20;99.90
254;DHT22;590;48.772;8.846;2024-01-06T14:38:19;6.20;99.90
254;DHT22;590;48.772;8.846;2024-01-06T14:40:47;6.10;99.90
254;DHT22;590;48.772;8.846;2024-01-06T14:43:15;6.20;99.90
254;DHT22;590;48.772;8.846;2024-01-06T14:45:43;6.20;99.90
254;DHT22;590;48.772;8.846;2024-01-06T14:48:11;6.20;99.90
254;DHT22;590;48.772;8.846;2024-01-06T14:50:39;6.20;99.90
254;DHT22;590;48.772;8.846;2024-01-06T14:53:08;6.20;99.90
254;DHT22;590;48.772;8.846;2024-01-06T14:55:37;6.20;99.90
254;DHT22;590;48.772;8.846;2024-01-06T14:58:05;6.10;99.90
254;DHT22;590;48.772;8.846;2024-01-06T15:00:36;6.10;99.90
254;DHT22;590;48.772;8.846;2024-01-06T15:03:04;6.00;99.90
254;DHT22;590;48.772;8.846;2024-01-06T15:05:32;6.00;99.90
254;DHT22;590;48.772;8.846;2024-01-06T15:08:00;6.00;99.90
254;DHT22;590;48.772;8.846;2024-01-06T15:10:30;6.00;99.90
254;DHT22;590;48.772;8.846;2024-01-06T15:12:58;6.00;99.90
254;DHT22;590;48.772;8.846;2024-01-06T15:15:26;5.90;99.90
254;DHT22;590;48.772;8.846;2024-01-06T15:17:54;6.00;99.90
254;DHT22;590;48.772;8.846;2024-01-06T15:20:22;5.90;99.90
254;DHT22;590;48.772;8.846;2024-01-06T15:22:50;5.90;99.90
254;DHT22;590;48.772;8.846;2024-01-06T15:25:18;5.90;99.90
254;DHT22;590;48.772;8.846;2024-01-06T15:27:48;5.80;99.90
254;DHT22;590;48.772;8.846;2024-01-06T15:30:16;5.80;99.90
254;DHT22;590;48.772;8.846;2024-01-06T15:32:46;5.80;99.90
254;DHT22;590;48.772;8.846;2024-01-06T15:35:15;5.90;99.90
254;DHT22;590;48.772;8.846;2024-01-06T15:37:45;5.80;99.90
254;DHT22;590;48.772;8.846;2024-01-06T15:40:14;5.80;99.90
254;DHT22;590;48.772;8.846;2024-01-06T15:42:43;5.80;99.90
254;DHT22;590;48.772;8.846;2024-01-06T15:45:16;5.80;99.90
254;DHT22;590;48.772;8.846;2024-01-06T15:47:44;5.80;99.90
254;DHT22;590;48.772;8.846;2024-01-06T15:50:12;5.80;99.90
254;DHT22;590;48.772;8.846;2024-01-06T15:52:41;5.80;99.90
254;DHT22;590;48.772;8.846;2024-01-06T15:55:12;5.80;99.90
254;DHT22;590;48.772;8.846;2024-01-06T15:57:40;5.80;99.90
254;DHT22;590;48.772;8.846;2024-01-06T16:00:11;5.80;99.90
254;DHT22;590;48.772;8.846;2024-01-06T16:02:41;5.80;99.90
254;DHT22;590;48.772;8.846;2024-01-06T16:05:09;5.80;99.90
254;DHT22;590;48.772;8.846;2024-01-06T16:07:37;5.80;99.90
254;DHT22;590;48.772;8.846;2024-01-06T16:10:06;5.70;99.90
254;DHT22;590;48.772;8.846;2024-01-06T16:12:34;5.80;99.90
254;DHT22;590;48.772;8.846;2024-01-06T16:15:07;5.70;99.90
254;DHT22;590;48.772;8.846;2024-01-06T16:17:35;5.70;99.90
254;DHT22;590;48.772;8.846;2024-01-06T16:20:06;5.80;99.90
254;DHT22;590;48.772;8.846;2024-01-06T16:22:34;5.70;99.90
254;DHT22;590;48.772;8.846;2024-01-06T16:25:02;5.70;99.90
254;DHT22;590;48.772;8.846;2024-01-06T16:27:31;5.70;99.90
254;DHT22;590;48.772;8.846;2024-01-06T16:29:59;5.60;99.90
254;DHT22;590;48.772;8.846;2024-01-06T16:32:27;5.60;99.90
254;DHT22;590;48.772;8.846;2024-01-06T16:34:55;5.60;99.90
254;DHT22;590;48.772;8.846;2024-01-06T16:37:24;5.60;99.90
254;DHT22;590;48.772;8.846;2024-01-06T16:39:53;5.60;99.90
254;DHT22;590;48.772;8.846;2024-01-06T16:42:21;5.60;99.90
254;DHT22;590;48.772;8.846;2024-01-06T16:45:00;5.70;99.90
254;DHT22;590;48.772;8.846;2024-01-06T16:47:28;5.60;99.90
254;DHT22;590;48.772;8.846;2024-01-06T16:49:56;5.60;99.90
254;DHT22;590;48.772;8.846;2024-01-06T16:52:26;5.60;99.90
254;DHT22;590;48.772;8.846;2024-01-06T16:54:54;5.60;99.90
254;DHT22;590;48.772;8.846;2024-01-06T16:57:22;5.60;99.90
254;DHT22;590;48.772;8.846;2024-01-06T16:59:50;5.60;99.90
254;DHT22;590;48.772;8.846;2024-01-06T17:02:18;5.60;99.90